Hampton Falls, New Hampshire
Current Conditions -  °F | °C
As of 8:58 PM on Friday 28 Nov 2014 (Local Time) from KPSM Reporting Station
Few Clouds Few Clouds  
Wind Chill: -9°   Ceiling: Unl
Heat Index: -5°   Visibility: 10mi
Dew Point: -9°   Wind: 6mph
Humidity: 75%   Direction: 280°W
Pressure: 30.16"   Gusts: NA
Location:  42.92°N, 70.86°W
Report Text: KPSM 290158Z 28005KT 10SM FEW050 M05/M09 A3016 RMK AO2A SLP218 T10491087
Loading
Personal Weather Stations






























Interactive Weather Map New forecast layout! Learn more

10-Day Weather Forecast

Advertisements
Track Severe Weather on mobile